Time;durP1;ratioP1;P1;durP2;ratioP2;P2;SDS_P1;SDS_P2;PMS_P1;PMS_P2;Temp;Humidity;BMP_temperature;BMP_pressure;BME280_temperature;BME280_humidity;BME280_pressure;Samples;Min_cycle;Max_cycle;Signal;HPM_P1;HPM_P2
2021/05/31 00:01:28;;;;;;;3.17;2.60;;;13.30;44.60;;;;;;5090761;28;20659;-82
2021/05/31 00:03:55;;;;;;;3.80;2.20;;;13.40;44.30;;;;;;5086830;28;20621;-83
2021/05/31 00:06:21;;;;;;;3.13;2.83;;;13.30;44.70;;;;;;5089261;28;20601;-80
2021/05/31 00:08:47;;;;;;;2.10;1.90;;;13.30;44.80;;;;;;5082539;28;20675;-80
2021/05/31 00:11:14;;;;;;;3.10;2.10;;;13.30;44.80;;;;;;5075169;28;20751;-80
2021/05/31 00:13:40;;;;;;;3.40;3.10;;;13.30;44.70;;;;;;5075709;28;20626;-81
2021/05/31 00:16:07;;;;;;;3.30;2.33;;;13.20;45.10;;;;;;5089788;28;20627;-81
2021/05/31 00:18:34;;;;;;;3.20;2.53;;;13.20;44.70;;;;;;5079919;28;20674;-80
2021/05/31 00:21:01;;;;;;;1.73;1.60;;;13.20;45.10;;;;;;5084859;28;20625;-81
2021/05/31 00:23:27;;;;;;;3.50;2.50;;;13.10;44.90;;;;;;5074683;28;20624;-80
2021/05/31 00:25:53;;;;;;;2.70;2.47;;;13.10;44.90;;;;;;5089677;28;20620;-81
2021/05/31 00:28:20;;;;;;;3.13;2.93;;;13.10;45.00;;;;;;5079742;28;20621;-80
2021/05/31 00:30:46;;;;;;;2.50;2.30;;;13.10;45.30;;;;;;5090415;28;20745;-81
2021/05/31 00:33:13;;;;;;;2.10;1.90;;;13.10;45.20;;;;;;5081463;28;20621;-81
2021/05/31 00:35:40;;;;;;;3.10;2.80;;;13.00;45.10;;;;;;5087765;28;20628;-81
2021/05/31 00:38:07;;;;;;;3.30;2.70;;;12.90;45.50;;;;;;5084962;28;20621;-82
2021/05/31 00:40:33;;;;;;;3.40;2.57;;;12.90;46.10;;;;;;5071022;28;20669;-82
2021/05/31 00:42:59;;;;;;;2.50;2.30;;;12.80;45.90;;;;;;5080161;28;21249;-82
2021/05/31 00:45:28;;;;;;;2.07;1.97;;;12.80;46.30;;;;;;5078475;28;21181;-82
2021/05/31 00:47:55;;;;;;;2.73;2.53;;;12.70;46.20;;;;;;5088394;28;21377;-82
2021/05/31 00:50:21;;;;;;;3.77;1.80;;;12.70;47.30;;;;;;5070442;28;20660;-82
2021/05/31 00:52:49;;;;;;;2.67;2.47;;;12.70;46.80;;;;;;5070595;28;20618;-83
2021/05/31 00:55:15;;;;;;;2.97;2.33;;;12.60;46.40;;;;;;5088092;28;21001;-82
2021/05/31 00:57:42;;;;;;;2.23;2.03;;;12.30;48.50;;;;;;5080747;28;20621;-82
2021/05/31 01:00:09;;;;;;;3.63;2.40;;;12.10;48.70;;;;;;5071006;28;20626;-81
2021/05/31 01:02:36;;;;;;;5.20;2.00;;;12.00;49.30;;;;;;5076874;28;20668;-82
2021/05/31 01:05:05;;;;;;;2.80;2.60;;;11.80;49.70;;;;;;5077250;28;21428;-82
2021/05/31 01:07:41;;;;;;;2.73;2.30;;;11.70;49.60;;;;;;5072995;28;20656;-82
2021/05/31 01:10:15;;;;;;;3.00;2.30;;;11.40;50.50;;;;;;5087121;28;20807;-82
2021/05/31 01:12:51;;;;;;;2.70;2.43;;;11.10;51.00;;;;;;5088710;28;21200;-81
2021/05/31 01:15:25;;;;;;;3.70;2.30;;;10.70;51.90;;;;;;5087426;28;20632;-81
2021/05/31 01:18:02;;;;;;;2.85;2.22;;;10.50;52.60;;;;;;5078859;28;20194;-81
2021/05/31 01:20:40;;;;;;;2.55;2.30;;;10.60;52.60;;;;;;5088895;28;20679;-81
2021/05/31 01:23:11;;;;;;;2.35;2.10;;;10.70;52.40;;;;;;5086250;28;20205;-81
2021/05/31 01:25:58;;;;;;;4.07;2.53;;;10.70;52.40;;;;;;5069141;28;20206;-81
2021/05/31 01:28:52;;;;;;;2.55;2.35;;;10.60;52.80;;;;;;5078112;28;20720;-81
2021/05/31 01:31:30;;;;;;;2.75;2.38;;;10.40;52.70;;;;;;5069308;28;20203;-81
2021/05/31 01:33:59;;;;;;;3.20;2.55;;;10.40;53.10;;;;;;5083148;28;20238;-81
2021/05/31 01:36:33;;;;;;;2.72;2.35;;;10.40;53.10;;;;;;5071237;28;20202;-81
2021/05/31 01:39:05;;;;;;;3.65;3.17;;;10.50;52.70;;;;;;5079423;28;20205;-81
2021/05/31 01:41:35;;;;;;;5.60;3.10;;;10.50;52.60;;;;;;5086916;28;20241;-81
2021/05/31 01:44:07;;;;;;;3.80;3.15;;;10.60;52.80;;;;;;5082296;28;20203;-82
2021/05/31 01:46:35;;;;;;;3.58;2.58;;;10.60;53.10;;;;;;5070077;28;20251;-81
2021/05/31 01:49:03;;;;;;;2.38;2.17;;;10.50;53.70;;;;;;5079919;28;20194;-81
2021/05/31 01:51:31;;;;;;;2.90;2.58;;;10.30;54.30;;;;;;5086921;28;20215;-81
2021/05/31 01:54:00;;;;;;;3.45;2.60;;;10.10;54.20;;;;;;5075637;28;20748;-81
2021/05/31 01:56:29;;;;;;;2.60;2.40;;;10.00;55.00;;;;;;5072200;28;20743;-81
2021/05/31 01:58:58;;;;;;;3.42;2.50;;;10.00;54.90;;;;;;5076264;28;20207;-82
2021/05/31 02:01:27;;;;;;;3.08;2.80;;;9.90;55.90;;;;;;5086411;28;20207;-82
2021/05/31 02:03:55;;;;;;;2.95;2.53;;;10.00;55.10;;;;;;5080626;28;20199;-82
2021/05/31 02:06:23;;;;;;;2.35;2.15;;;10.00;55.30;;;;;;5075614;28;20198;-82
2021/05/31 02:08:51;;;;;;;2.78;2.58;;;10.00;55.40;;;;;;5080379;28;20195;-82
2021/05/31 02:11:26;;;;;;;5.68;2.78;;;9.90;55.80;;;;;;5092046;28;20203;-82
2021/05/31 02:14:01;;;;;;;3.65;2.35;;;10.00;55.20;;;;;;5076038;28;20277;-81
2021/05/31 02:16:38;;;;;;;2.80;2.60;;;10.10;55.40;;;;;;5082372;28;20191;-81
2021/05/31 02:19:10;;;;;;;3.00;2.30;;;10.00;55.60;;;;;;5077280;28;20295;-81
2021/05/31 02:21:41;;;;;;;3.67;2.75;;;10.00;55.50;;;;;;5072168;28;20605;-81
2021/05/31 02:24:10;;;;;;;5.43;2.83;;;9.90;58.90;;;;;;5072633;28;20649;-81
2021/05/31 02:26:57;;;;;;;3.70;2.80;;;9.90;58.80;;;;;;5075760;28;20233;-82
2021/05/31 02:29:36;;;;;;;3.33;2.80;;;9.90;59.30;;;;;;5084526;28;20194;-81
2021/05/31 02:32:15;;;;;;;3.28;2.60;;;9.70;59.40;;;;;;5084529;28;20195;-82
2021/05/31 02:34:56;;;;;;;2.83;2.58;;;9.60;59.90;;;;;;5083788;28;20226;-81
2021/05/31 02:37:30;;;;;;;3.03;2.72;;;9.60;59.80;;;;;;5087098;28;20236;-81
2021/05/31 02:39:59;;;;;;;4.72;2.80;;;9.40;59.90;;;;;;5072280;28;20286;-81
2021/05/31 02:42:27;;;;;;;2.45;2.25;;;9.30;60.30;;;;;;5072752;28;20223;-81
2021/05/31 02:44:55;;;;;;;3.20;2.60;;;9.30;60.40;;;;;;5084879;28;20195;-81
2021/05/31 02:47:24;;;;;;;3.35;2.85;;;9.30;61.30;;;;;;5091210;28;20201;-81
2021/05/31 02:49:51;;;;;;;3.42;2.80;;;9.40;60.70;;;;;;5073935;28;20195;-81
2021/05/31 02:52:18;;;;;;;5.13;3.53;;;9.30;60.80;;;;;;5083233;28;20888;-82
2021/05/31 02:54:45;;;;;;;6.40;2.72;;;9.40;60.50;;;;;;5090003;28;20236;-82
2021/05/31 02:57:11;;;;;;;3.50;3.20;;;9.20;61.10;;;;;;5081343;28;20222;-81
2021/05/31 02:59:37;;;;;;;2.90;2.60;;;9.20;61.70;;;;;;5083629;28;20626;-82
2021/05/31 03:02:04;;;;;;;2.70;2.50;;;9.20;63.20;;;;;;5076826;28;20265;-81
2021/05/31 03:04:33;;;;;;;2.47;2.28;;;9.10;62.90;;;;;;5083117;28;20553;-81
2021/05/31 03:06:59;;;;;;;2.92;2.55;;;9.20;62.60;;;;;;5086264;28;20693;-81
2021/05/31 03:09:26;;;;;;;3.95;2.97;;;9.20;63.30;;;;;;5082327;28;20199;-81
2021/05/31 03:11:52;;;;;;;5.68;2.60;;;9.20;62.40;;;;;;5090602;28;20195;-81
2021/05/31 03:14:19;;;;;;;3.28;2.80;;;9.20;62.30;;;;;;5085190;28;20191;-81
2021/05/31 03:16:46;;;;;;;5.97;3.40;;;9.20;62.80;;;;;;5089780;28;20194;-81
2021/05/31 03:19:13;;;;;;;2.78;2.58;;;9.20;62.10;;;;;;5081531;28;20195;-81
2021/05/31 03:21:40;;;;;;;4.93;3.22;;;9.10;63.70;;;;;;5072001;28;20285;-82
2021/05/31 03:24:07;;;;;;;3.85;3.00;;;9.00;63.00;;;;;;5087194;28;20195;-81
2021/05/31 03:26:33;;;;;;;4.28;3.88;;;9.00;63.20;;;;;;5070794;28;20195;-80
2021/05/31 03:29:00;;;;;;;3.15;2.85;;;8.90;62.50;;;;;;5077064;28;20238;-81
2021/05/31 03:31:26;;;;;;;3.30;2.78;;;8.80;62.70;;;;;;5070948;28;20196;-80
2021/05/31 03:33:52;;;;;;;3.60;2.80;;;8.70;63.30;;;;;;5083333;28;20195;-80
2021/05/31 03:36:19;;;;;;;3.30;2.42;;;8.70;63.20;;;;;;5070696;28;20199;-81
2021/05/31 03:38:46;;;;;;;3.95;2.67;;;8.60;63.90;;;;;;5081337;28;20194;-81
2021/05/31 03:41:13;;;;;;;3.25;2.70;;;8.60;64.70;;;;;;5080967;28;20218;-81
2021/05/31 03:43:39;;;;;;;2.53;2.35;;;8.70;64.60;;;;;;5074613;28;20195;-80
2021/05/31 03:46:06;;;;;;;4.30;3.13;;;8.80;63.90;;;;;;5088875;28;20203;-80
2021/05/31 03:48:32;;;;;;;4.05;3.17;;;8.80;64.00;;;;;;5082454;28;20187;-80
2021/05/31 03:51:08;;;;;;;4.70;3.28;;;8.90;62.90;;;;;;5091449;28;20198;-81
2021/05/31 03:53:37;;;;;;;3.00;2.72;;;9.00;63.20;;;;;;5078808;28;20187;-80
2021/05/31 03:56:06;;;;;;;4.53;2.70;;;9.00;63.50;;;;;;5075533;28;20593;-81
2021/05/31 03:58:33;;;;;;;3.47;2.92;;;8.90;64.00;;;;;;5087308;28;20691;-80
2021/05/31 04:01:00;;;;;;;3.15;2.83;;;9.20;64.10;;;;;;5090048;28;20199;-81
2021/05/31 04:03:27;;;;;;;3.10;2.80;;;9.10;64.10;;;;;;5076436;28;20719;-81
2021/05/31 04:06:03;;;;;;;3.70;2.92;;;9.10;64.40;;;;;;5090306;28;20199;-81
2021/05/31 04:11:35;;;;;;;4.28;2.90;;;9.10;64.10;;;;;;5074729;28;20202;-81
2021/05/31 04:14:03;;;;;;;4.28;3.40;;;9.20;63.30;;;;;;5077236;28;20243;-82
2021/05/31 04:16:30;;;;;;;3.17;2.70;;;9.40;61.80;;;;;;5090338;28;20233;-81
2021/05/31 04:18:56;;;;;;;4.38;3.20;;;9.60;60.50;;;;;;5081236;28;20285;-81
2021/05/31 04:21:23;;;;;;;5.28;3.63;;;9.80;60.30;;;;;;5089589;28;20245;-80
2021/05/31 04:23:50;;;;;;;4.03;3.25;;;9.90;59.20;;;;;;5082988;28;20653;-81
2021/05/31 04:26:18;;;;;;;3.20;2.90;;;10.10;57.90;;;;;;5082783;28;20203;-81
2021/05/31 04:28:46;;;;;;;3.20;2.97;;;10.10;58.10;;;;;;5084231;28;20325;-83
2021/05/31 04:31:13;;;;;;;5.22;3.75;;;10.20;58.30;;;;;;5070498;28;20252;-82
2021/05/31 04:33:39;;;;;;;3.78;3.35;;;10.30;58.50;;;;;;5074799;28;20187;-82
2021/05/31 04:36:06;;;;;;;6.28;3.30;;;10.40;57.60;;;;;;5069046;28;20577;-81
2021/05/31 04:38:33;;;;;;;3.63;3.33;;;10.50;56.90;;;;;;5076561;28;20266;-82
2021/05/31 04:40:59;;;;;;;4.35;3.47;;;10.60;56.90;;;;;;5075809;28;20252;-81
2021/05/31 04:43:27;;;;;;;5.10;3.22;;;10.70;56.50;;;;;;5088575;28;20202;-81
2021/05/31 04:45:53;;;;;;;4.35;3.50;;;10.90;56.60;;;;;;5069334;28;20195;-82
2021/05/31 04:48:20;;;;;;;4.88;4.25;;;10.90;56.40;;;;;;5072733;28;20199;-82
2021/05/31 04:50:46;;;;;;;4.78;3.67;;;11.00;56.10;;;;;;5089207;28;20198;-82
2021/05/31 04:53:13;;;;;;;4.03;3.25;;;11.10;56.10;;;;;;5077057;28;20195;-82
2021/05/31 04:55:40;;;;;;;4.38;3.63;;;11.20;56.10;;;;;;5069718;28;20658;-82
2021/05/31 04:58:06;;;;;;;4.13;3.60;;;11.20;56.00;;;;;;5074978;28;20210;-82
2021/05/31 05:00:34;;;;;;;4.63;4.20;;;11.30;56.40;;;;;;5070211;28;20253;-81
2021/05/31 05:03:00;;;;;;;8.02;4.65;;;11.40;55.90;;;;;;5076620;28;20238;-81
2021/05/31 05:05:27;;;;;;;3.80;3.10;;;11.50;55.80;;;;;;5076934;28;20257;-82
2021/05/31 05:07:53;;;;;;;5.25;3.83;;;11.60;55.70;;;;;;5080012;28;20654;-81
2021/05/31 05:10:22;;;;;;;4.17;3.80;;;11.70;55.80;;;;;;5090437;28;20238;-82
2021/05/31 05:12:51;;;;;;;6.67;3.80;;;11.80;55.40;;;;;;5086272;28;20632;-81
2021/05/31 05:15:20;;;;;;;5.10;3.70;;;11.90;55.40;;;;;;5085394;28;20666;-81
2021/05/31 05:17:49;;;;;;;4.97;3.60;;;12.10;55.60;;;;;;5088919;28;21630;-81
2021/05/31 05:20:16;;;;;;;4.67;3.90;;;12.10;55.30;;;;;;5088428;28;20670;-82
2021/05/31 05:22:43;;;;;;;4.73;4.30;;;12.20;55.50;;;;;;5087406;28;21246;-82
2021/05/31 05:25:10;;;;;;;4.43;3.87;;;12.30;54.90;;;;;;5075351;28;20675;-82
2021/05/31 05:27:37;;;;;;;4.90;3.90;;;12.50;54.90;;;;;;5079616;28;21214;-82
2021/05/31 05:30:05;;;;;;;4.47;3.57;;;12.50;54.70;;;;;;5071280;28;20645;-82
2021/05/31 05:32:32;;;;;;;5.23;4.20;;;12.60;54.50;;;;;;5077513;28;20621;-82
2021/05/31 05:35:07;;;;;;;4.60;3.90;;;12.60;55.20;;;;;;5085440;28;21188;-82
2021/05/31 05:37:41;;;;;;;5.73;3.83;;;12.60;54.50;;;;;;5072857;28;20758;-82
2021/05/31 05:43:10;;;;;;;6.07;4.18;;;12.70;54.70;;;;;;5085520;28;20766;-81
2021/05/31 05:45:53;;;;;;;5.13;4.47;;;12.90;54.70;;;;;;5084699;28;20195;-81
2021/05/31 05:48:20;;;;;;;3.90;3.50;;;13.10;54.50;;;;;;5090422;28;20731;-81
2021/05/31 05:50:48;;;;;;;4.23;3.83;;;13.10;54.40;;;;;;5092854;28;20616;-81
2021/05/31 05:53:14;;;;;;;4.10;3.70;;;13.20;54.20;;;;;;5088929;28;20633;-82
2021/05/31 05:55:41;;;;;;;8.57;4.27;;;13.30;54.00;;;;;;5074198;28;20676;-82
2021/05/31 05:58:08;;;;;;;4.30;3.90;;;13.40;54.10;;;;;;5085025;28;20998;-82
2021/05/31 06:00:36;;;;;;;6.23;3.83;;;13.40;53.70;;;;;;5093771;28;20674;-82
2021/05/31 06:03:03;;;;;;;3.70;3.40;;;13.60;54.50;;;;;;5080548;28;20657;-81
2021/05/31 06:05:29;;;;;;;3.70;3.40;;;13.70;54.30;;;;;;5088865;28;20632;-81
2021/05/31 06:07:57;;;;;;;3.83;3.53;;;13.80;54.20;;;;;;5083923;28;20656;-82
2021/05/31 06:10:23;;;;;;;3.70;3.40;;;13.90;54.10;;;;;;5074068;28;20621;-81
2021/05/31 06:12:50;;;;;;;3.60;3.30;;;14.00;53.10;;;;;;5081160;28;20724;-81
2021/05/31 06:15:16;;;;;;;9.97;3.70;;;13.90;52.20;;;;;;5083534;28;20686;-82
2021/05/31 06:17:44;;;;;;;7.83;3.40;;;14.10;51.80;;;;;;5072613;28;20644;-80
2021/05/31 06:20:11;;;;;;;3.30;2.67;;;14.10;52.10;;;;;;5072585;28;20778;-81
2021/05/31 06:22:39;;;;;;;3.43;3.13;;;14.10;52.50;;;;;;5074164;28;21282;-82
2021/05/31 06:25:09;;;;;;;4.10;3.70;;;14.20;52.40;;;;;;5088754;28;21262;-80
2021/05/31 06:27:36;;;;;;;3.43;3.00;;;14.30;52.80;;;;;;5072176;28;20671;-81
2021/05/31 06:30:03;;;;;;;4.47;3.57;;;14.50;52.90;;;;;;5072336;28;20782;-82
2021/05/31 06:32:30;;;;;;;3.80;3.23;;;14.50;53.10;;;;;;5071631;28;20770;-82
2021/05/31 06:34:56;;;;;;;3.57;3.27;;;14.60;53.10;;;;;;5071230;28;20767;-81
2021/05/31 06:37:23;;;;;;;3.73;3.17;;;14.70;51.30;;;;;;5072027;28;20706;-81
2021/05/31 06:39:49;;;;;;;2.83;2.63;;;14.80;51.40;;;;;;5072312;28;20667;-81
2021/05/31 06:42:17;;;;;;;3.90;3.40;;;14.80;50.40;;;;;;5079229;28;20679;-82
2021/05/31 06:44:44;;;;;;;3.33;3.10;;;14.80;50.20;;;;;;5071644;28;20966;-81
2021/05/31 06:47:10;;;;;;;3.13;2.83;;;14.90;50.50;;;;;;5091428;28;20665;-82
2021/05/31 06:49:37;;;;;;;3.20;2.90;;;15.00;51.10;;;;;;5079355;28;20614;-81
2021/05/31 06:52:05;;;;;;;3.37;3.03;;;15.20;51.30;;;;;;5090547;28;20633;-82
2021/05/31 06:54:31;;;;;;;3.30;3.10;;;15.40;50.50;;;;;;5087294;28;20652;-81
2021/05/31 06:56:58;;;;;;;3.40;3.10;;;15.50;49.50;;;;;;5090149;28;20694;-82
2021/05/31 06:59:26;;;;;;;3.20;2.67;;;15.50;49.20;;;;;;5090135;28;20970;-82
2021/05/31 07:01:53;;;;;;;3.73;2.93;;;15.50;48.10;;;;;;5084257;28;20652;-83
2021/05/31 07:04:20;;;;;;;4.27;3.27;;;15.60;49.40;;;;;;5086601;28;20662;-82
2021/05/31 07:06:48;;;;;;;2.80;2.60;;;15.60;49.30;;;;;;5087368;28;20625;-82
2021/05/31 07:09:14;;;;;;;3.70;3.40;;;15.80;49.50;;;;;;5084438;28;20619;-81
2021/05/31 07:11:44;;;;;;;3.63;3.30;;;15.80;48.70;;;;;;5076281;28;20965;-82
2021/05/31 07:14:16;;;;;;;3.30;3.00;;;16.00;49.10;;;;;;5077258;28;20648;-82
2021/05/31 07:16:44;;;;;;;2.87;2.67;;;16.00;49.30;;;;;;5073747;28;20693;-81
2021/05/31 07:19:11;;;;;;;3.17;2.90;;;16.10;48.40;;;;;;5089459;28;20726;-83
2021/05/31 07:21:39;;;;;;;3.20;2.90;;;16.20;49.00;;;;;;5081679;28;21007;-82
2021/05/31 07:24:08;;;;;;;3.03;2.83;;;16.10;47.70;;;;;;5091944;28;21265;-83
2021/05/31 07:26:36;;;;;;;3.03;2.73;;;16.10;47.20;;;;;;5091282;28;20636;-83
2021/05/31 07:29:03;;;;;;;11.00;3.30;;;16.10;47.30;;;;;;5089509;28;20612;-82
2021/05/31 07:31:32;;;;;;;5.37;3.03;;;16.30;48.80;;;;;;5080450;28;21263;-82
2021/05/31 07:34:03;;;;;;;2.33;2.13;;;16.60;48.10;;;;;;5071372;28;20623;-82
2021/05/31 07:36:30;;;;;;;3.13;2.93;;;16.60;47.00;;;;;;5071665;28;20639;-83
2021/05/31 07:38:57;;;;;;;2.73;2.53;;;16.40;46.40;;;;;;5071513;28;20617;-83
2021/05/31 07:41:24;;;;;;;3.23;3.03;;;16.50;47.00;;;;;;5072127;28;20622;-80
2021/05/31 07:43:50;;;;;;;2.53;2.37;;;16.70;45.70;;;;;;5065483;28;20648;-82
2021/05/31 07:46:17;;;;;;;2.17;2.07;;;16.70;45.20;;;;;;5073167;28;20889;-83
2021/05/31 07:48:45;;;;;;;3.20;2.80;;;16.80;45.10;;;;;;5073467;28;20638;-84
2021/05/31 07:51:17;;;;;;;2.80;2.50;;;16.90;45.40;;;;;;5083523;28;21006;-84
2021/05/31 07:53:45;;;;;;;2.80;2.60;;;17.00;45.70;;;;;;5070634;28;20618;-82
2021/05/31 07:56:13;;;;;;;2.47;2.13;;;17.10;44.40;;;;;;5069888;28;20625;-83
2021/05/31 07:58:40;;;;;;;3.23;2.93;;;17.10;44.40;;;;;;5083347;28;20650;-82
2021/05/31 08:01:06;;;;;;;3.83;2.37;;;17.20;44.20;;;;;;5088405;28;20739;-81
2021/05/31 08:03:33;;;;;;;2.77;2.53;;;17.20;43.40;;;;;;5090936;28;20680;-82
2021/05/31 08:06:00;;;;;;;2.50;2.30;;;17.20;43.90;;;;;;5085068;28;20647;-82
2021/05/31 08:08:28;;;;;;;2.70;2.50;;;17.30;44.30;;;;;;5078873;28;21094;-82
2021/05/31 08:10:55;;;;;;;2.30;2.17;;;17.40;43.80;;;;;;5080944;28;20614;-82
2021/05/31 08:13:22;;;;;;;5.07;2.83;;;17.50;41.90;;;;;;5082067;28;20625;-82
2021/05/31 08:15:49;;;;;;;3.67;2.93;;;17.60;41.40;;;;;;5081790;28;21209;-83
2021/05/31 08:18:16;;;;;;;2.30;2.20;;;17.60;43.30;;;;;;5078837;28;20610;-83
2021/05/31 08:20:43;;;;;;;3.60;2.67;;;17.80;43.60;;;;;;5071037;28;20626;-85
2021/05/31 08:23:09;;;;;;;2.60;2.40;;;17.80;42.50;;;;;;5073866;28;20687;-83
2021/05/31 08:25:37;;;;;;;2.40;2.20;;;17.80;42.80;;;;;;5074388;28;20621;-83
2021/05/31 08:28:05;;;;;;;2.67;2.47;;;17.80;42.70;;;;;;5089047;28;20689;-83
2021/05/31 08:30:32;;;;;;;2.50;2.30;;;17.80;41.70;;;;;;5088487;28;20617;-83
2021/05/31 08:32:59;;;;;;;4.93;2.87;;;17.90;41.80;;;;;;5090007;28;20751;-83
2021/05/31 08:35:26;;;;;;;4.23;2.80;;;17.90;42.80;;;;;;5087791;28;20633;-83
2021/05/31 08:37:52;;;;;;;8.43;2.90;;;18.00;42.20;;;;;;5077833;28;20660;-82
2021/05/31 08:40:19;;;;;;;4.30;2.50;;;18.00;41.10;;;;;;5079430;28;21230;-83
2021/05/31 08:42:49;;;;;;;2.57;2.37;;;18.10;42.10;;;;;;5079236;28;20657;-83
2021/05/31 08:45:18;;;;;;;2.50;2.30;;;18.10;42.40;;;;;;5076719;28;20632;-82
2021/05/31 08:47:47;;;;;;;2.70;2.50;;;18.10;40.80;;;;;;5087818;28;20620;-82
2021/05/31 08:50:17;;;;;;;3.23;2.77;;;18.30;41.10;;;;;;5088644;28;20617;-83
2021/05/31 08:52:44;;;;;;;2.70;2.50;;;18.30;40.10;;;;;;5082487;28;20699;-82
2021/05/31 08:55:14;;;;;;;2.67;2.47;;;18.40;40.50;;;;;;5081933;28;20633;-82
2021/05/31 08:57:40;;;;;;;3.10;2.90;;;18.50;40.80;;;;;;5075867;28;20609;-83
2021/05/31 09:00:12;;;;;;;3.00;2.47;;;18.40;42.60;;;;;;5079137;28;20666;-82
2021/05/31 09:02:39;;;;;;;3.10;2.90;;;18.60;41.70;;;;;;5082086;28;21057;-83
2021/05/31 09:05:08;;;;;;;3.03;2.73;;;18.70;40.80;;;;;;5082025;28;20725;-82
2021/05/31 09:07:34;;;;;;;2.67;2.03;;;18.70;41.30;;;;;;5080799;28;21228;-83
2021/05/31 09:10:03;;;;;;;3.37;2.40;;;18.30;41.60;;;;;;5090291;28;20656;-85
2021/05/31 09:12:32;;;;;;;3.43;2.47;;;18.30;42.70;;;;;;5081582;28;20945;-84
2021/05/31 09:15:01;;;;;;;2.80;2.60;;;18.40;43.40;;;;;;5083141;28;21275;-84
2021/05/31 09:17:31;;;;;;;3.73;3.03;;;18.70;42.70;;;;;;5087755;28;20609;-84
2021/05/31 09:19:58;;;;;;;3.47;3.17;;;18.60;43.40;;;;;;5093960;28;20656;-84
2021/05/31 09:22:25;;;;;;;3.07;2.63;;;18.60;43.20;;;;;;5088015;28;21023;-82
2021/05/31 09:24:56;;;;;;;2.90;2.60;;;18.60;42.20;;;;;;5089296;28;20655;-83
2021/05/31 09:27:23;;;;;;;2.70;2.50;;;18.90;42.70;;;;;;5087730;28;21166;-83
2021/05/31 09:29:58;;;;;;;2.90;2.47;;;19.10;41.60;;;;;;5082237;28;21273;-83
2021/05/31 09:32:25;;;;;;;2.93;2.73;;;19.10;42.30;;;;;;5084649;28;20637;-83
2021/05/31 09:35:02;;;;;;;2.30;2.20;;;19.30;41.60;;;;;;5092106;28;20630;-84
2021/05/31 09:37:29;;;;;;;2.70;2.13;;;19.40;42.30;;;;;;5093428;28;20631;-82
2021/05/31 09:40:00;;;;;;;2.50;2.30;;;19.60;42.20;;;;;;5091275;28;20633;-83
2021/05/31 09:42:27;;;;;;;2.60;2.40;;;19.50;42.00;;;;;;5088551;28;20655;-82
2021/05/31 09:45:00;;;;;;;3.50;3.20;;;19.60;41.80;;;;;;5072715;28;20618;-82
2021/05/31 09:47:31;;;;;;;3.63;3.33;;;19.60;41.10;;;;;;5076406;28;20670;-82
2021/05/31 09:49:57;;;;;;;2.80;2.60;;;19.70;40.60;;;;;;5087920;28;21049;-83
2021/05/31 09:52:26;;;;;;;2.60;2.40;;;19.80;41.20;;;;;;5094147;28;20704;-82
2021/05/31 09:54:53;;;;;;;5.10;2.90;;;19.90;40.80;;;;;;5089907;28;20630;-82
2021/05/31 09:57:22;;;;;;;3.10;2.90;;;19.90;41.40;;;;;;5091294;28;20628;-83
2021/05/31 09:59:51;;;;;;;3.00;2.80;;;20.00;41.00;;;;;;5075250;28;20659;-83
2021/05/31 10:02:23;;;;;;;2.93;2.63;;;20.00;39.90;;;;;;5091805;28;20715;-81
2021/05/31 10:05:06;;;;;;;3.73;3.43;;;20.20;39.50;;;;;;5088927;28;20627;-81
2021/05/31 10:07:44;;;;;;;2.80;2.60;;;20.30;40.90;;;;;;5082815;28;20639;-82
2021/05/31 10:10:11;;;;;;;2.40;2.20;;;20.30;38.80;;;;;;5074552;28;20636;-82
2021/05/31 10:12:41;;;;;;;2.77;2.50;;;20.30;39.80;;;;;;5081030;28;20690;-82
2021/05/31 10:15:10;;;;;;;2.67;2.47;;;20.50;38.50;;;;;;5087170;28;20680;-83
2021/05/31 10:17:38;;;;;;;3.13;2.90;;;20.60;39.10;;;;;;5078221;28;21211;-82
2021/05/31 10:20:06;;;;;;;3.43;3.13;;;20.60;39.60;;;;;;5072302;28;20617;-83
2021/05/31 10:22:36;;;;;;;3.10;2.90;;;20.80;39.30;;;;;;5072663;28;20745;-82
2021/05/31 10:25:04;;;;;;;3.37;2.80;;;20.90;39.20;;;;;;5071992;28;20683;-82
2021/05/31 10:27:33;;;;;;;2.83;2.63;;;21.00;38.90;;;;;;5071557;28;20613;-82
2021/05/31 10:30:01;;;;;;;3.43;2.20;;;21.00;37.50;;;;;;5065890;28;20652;-82
2021/05/31 10:32:27;;;;;;;2.83;2.63;;;20.80;38.80;;;;;;5070168;28;20629;-82
2021/05/31 10:34:55;;;;;;;2.73;2.53;;;20.80;37.80;;;;;;5070899;28;20625;-82
2021/05/31 10:37:23;;;;;;;3.80;2.97;;;20.80;38.70;;;;;;5071132;28;20643;-82
2021/05/31 10:40:09;;;;;;;4.47;2.80;;;20.90;38.80;;;;;;5071826;28;20753;-83
2021/05/31 10:42:40;;;;;;;2.70;2.50;;;21.10;38.80;;;;;;5071873;28;20653;-83
2021/05/31 10:45:25;;;;;;;3.30;3.00;;;21.20;38.10;;;;;;5070950;28;20682;-83
2021/05/31 10:48:06;;;;;;;2.97;2.73;;;21.40;39.90;;;;;;5071788;28;21019;-83
2021/05/31 10:50:35;;;;;;;6.20;2.53;;;21.50;38.10;;;;;;5072031;28;20667;-82
2021/05/31 10:53:01;;;;;;;2.93;2.73;;;21.60;38.40;;;;;;5072138;28;20636;-83
2021/05/31 10:55:29;;;;;;;2.90;2.70;;;21.60;37.90;;;;;;5070208;28;20657;-83
2021/05/31 10:57:58;;;;;;;2.67;2.33;;;21.80;37.70;;;;;;5072462;28;20629;-83
2021/05/31 11:00:27;;;;;;;3.30;3.00;;;21.90;37.40;;;;;;5071865;28;20712;-83
2021/05/31 11:03:09;;;;;;;2.90;2.60;;;22.00;37.40;;;;;;5072260;28;20661;-83
2021/05/31 11:05:35;;;;;;;2.90;2.70;;;22.00;37.90;;;;;;5071866;28;20702;-83
2021/05/31 11:08:02;;;;;;;3.00;2.80;;;22.20;37.50;;;;;;5083974;28;20636;-83
2021/05/31 11:10:32;;;;;;;2.93;2.67;;;22.30;37.00;;;;;;5084431;28;20633;-84
2021/05/31 11:13:10;;;;;;;2.53;2.33;;;22.40;37.80;;;;;;5092138;28;20744;-83
2021/05/31 11:15:36;;;;;;;4.50;2.70;;;22.60;37.70;;;;;;5072544;28;20649;-84
2021/05/31 11:18:04;;;;;;;2.97;2.77;;;22.80;38.00;;;;;;5071653;28;21008;-84
2021/05/31 11:20:31;;;;;;;2.70;2.50;;;23.00;37.20;;;;;;5066083;28;20641;-83
2021/05/31 11:22:59;;;;;;;2.70;2.50;;;23.20;36.40;;;;;;5072147;28;21015;-84
2021/05/31 11:25:27;;;;;;;2.97;2.67;;;23.50;36.90;;;;;;5071131;28;20635;-84
2021/05/31 11:27:58;;;;;;;2.80;2.60;;;23.70;35.60;;;;;;5071897;28;20721;-83
2021/05/31 11:30:27;;;;;;;3.00;2.80;;;23.80;35.50;;;;;;5071440;28;20683;-83
2021/05/31 11:32:56;;;;;;;2.60;2.40;;;23.90;34.30;;;;;;5070020;28;20687;-83
2021/05/31 11:35:23;;;;;;;2.20;2.00;;;24.00;36.90;;;;;;5071283;28;20658;-83
2021/05/31 11:37:51;;;;;;;2.30;2.20;;;24.30;35.10;;;;;;5071560;28;20623;-83
2021/05/31 11:40:23;;;;;;;2.73;2.33;;;24.60;34.30;;;;;;5072004;28;20735;-83
2021/05/31 11:42:54;;;;;;;2.83;2.63;;;24.90;33.30;;;;;;5071486;28;20656;-84
2021/05/31 11:45:24;;;;;;;2.40;2.30;;;25.20;33.60;;;;;;5075887;28;20605;-84
2021/05/31 11:47:55;;;;;;;3.80;2.80;;;25.60;32.50;;;;;;5081288;28;20640;-83
2021/05/31 11:50:23;;;;;;;2.50;2.30;;;26.20;32.90;;;;;;5081984;28;20617;-84
2021/05/31 11:52:49;;;;;;;3.83;2.90;;;26.50;31.60;;;;;;5090117;28;20732;-84
2021/05/31 11:55:18;;;;;;;2.73;2.53;;;27.10;31.80;;;;;;5089018;28;20656;-84
2021/05/31 11:57:45;;;;;;;4.30;2.20;;;27.60;30.60;;;;;;5091860;28;21002;-85
2021/05/31 12:00:17;;;;;;;2.73;2.53;;;28.20;31.10;;;;;;5085459;28;20682;-85
2021/05/31 12:02:45;;;;;;;2.20;2.10;;;28.80;30.50;;;;;;5076939;28;20672;-82
2021/05/31 12:05:13;;;;;;;2.37;2.27;;;29.90;30.00;;;;;;5089409;28;20708;-84
2021/05/31 12:07:44;;;;;;;2.50;2.30;;;31.70;28.50;;;;;;5080811;28;20660;-85
2021/05/31 12:10:12;;;;;;;2.40;2.30;;;31.90;28.30;;;;;;5073606;28;20730;-85
2021/05/31 12:12:40;;;;;;;2.27;2.17;;;32.20;27.50;;;;;;5090608;28;20666;-85
2021/05/31 12:15:12;;;;;;;2.20;2.10;;;31.40;27.40;;;;;;5090474;28;20694;-86
2021/05/31 12:17:39;;;;;;;2.20;2.10;;;31.20;27.40;;;;;;5082298;28;20629;-86
2021/05/31 12:20:09;;;;;;;5.93;2.50;;;31.30;28.40;;;;;;5078247;28;20624;-85
2021/05/31 12:22:38;;;;;;;2.53;2.43;;;32.10;27.10;;;;;;5090582;28;21173;-86
2021/05/31 12:25:10;;;;;;;2.33;2.23;;;31.70;27.70;;;;;;5071110;28;20629;-85
2021/05/31 12:27:40;;;;;;;2.43;2.20;;;31.70;27.90;;;;;;5075727;28;20624;-85
2021/05/31 12:30:09;;;;;;;2.67;2.47;;;31.90;27.70;;;;;;5090379;28;20633;-85
2021/05/31 12:32:37;;;;;;;2.23;2.13;;;33.00;26.70;;;;;;5069642;28;20645;-86
2021/05/31 12:35:05;;;;;;;3.07;2.60;;;33.10;26.60;;;;;;5090328;28;20666;-86
2021/05/31 12:37:34;;;;;;;2.40;2.13;;;33.00;27.00;;;;;;5088017;28;20635;-85
2021/05/31 12:40:06;;;;;;;2.43;2.23;;;32.50;26.70;;;;;;5089001;28;20734;-86
2021/05/31 12:42:34;;;;;;;3.70;2.50;;;32.80;26.60;;;;;;5070391;28;21148;-86
2021/05/31 12:45:03;;;;;;;2.33;2.23;;;32.90;26.60;;;;;;5070216;28;20637;-86
2021/05/31 12:47:39;;;;;;;2.30;2.10;;;32.90;26.50;;;;;;5069689;28;21084;-86
2021/05/31 12:50:09;;;;;;;2.47;2.27;;;33.00;26.50;;;;;;5075424;28;20778;-86
2021/05/31 12:52:43;;;;;;;2.60;2.30;;;32.80;27.20;;;;;;5070195;28;20661;-85
2021/05/31 12:55:14;;;;;;;2.40;2.30;;;31.80;27.80;;;;;;5087743;28;20634;-86
2021/05/31 12:57:42;;;;;;;2.90;2.70;;;32.50;27.70;;;;;;5086591;28;20633;-87
2021/05/31 13:00:13;;;;;;;2.27;2.17;;;33.10;26.70;;;;;;5070891;28;20605;-85
2021/05/31 13:02:41;;;;;;;2.23;2.13;;;33.10;26.60;;;;;;5087135;28;20640;-87